sensor_id;sensor_type;location;lat;lon;timestamp;pressure;altitude;pressure_sealevel;temperature;humidity
7200;BME280;3641;49.082;8.200;2023-03-21T00:01:07;100623.66;;;10.07;68.13
7200;BME280;3641;49.082;8.200;2023-03-21T00:03:37;100616.63;;;10.13;68.26
7200;BME280;3641;49.082;8.200;2023-03-21T00:06:05;100614.94;;;10.12;68.11
7200;BME280;3641;49.082;8.200;2023-03-21T00:08:32;100613.91;;;10.13;68.14
7200;BME280;3641;49.082;8.200;2023-03-21T00:11:01;100614.47;;;10.00;68.81
7200;BME280;3641;49.082;8.200;2023-03-21T00:13:29;100605.78;;;9.96;68.89
7200;BME280;3641;49.082;8.200;2023-03-21T00:16:02;100609.66;;;10.10;67.90
7200;BME280;3641;49.082;8.200;2023-03-21T00:18:30;100608.66;;;10.03;68.56
7200;BME280;3641;49.082;8.200;2023-03-21T00:20:58;100605.88;;;9.47;72.01
7200;BME280;3641;49.082;8.200;2023-03-21T00:23:25;100610.28;;;9.73;71.13
7200;BME280;3641;49.082;8.200;2023-03-21T00:25:52;100606.91;;;9.38;72.66
7200;BME280;3641;49.082;8.200;2023-03-21T00:28:19;100597.88;;;9.54;70.77
7200;BME280;3641;49.082;8.200;2023-03-21T00:30:45;100594.63;;;9.75;70.00
7200;BME280;3641;49.082;8.200;2023-03-21T00:33:12;100602.06;;;9.89;69.34
7200;BME280;3641;49.082;8.200;2023-03-21T00:35:40;100602.41;;;9.94;68.52
7200;BME280;3641;49.082;8.200;2023-03-21T00:38:08;100596.63;;;9.89;69.23
7200;BME280;3641;49.082;8.200;2023-03-21T00:40:35;100594.69;;;9.98;68.68
7200;BME280;3641;49.082;8.200;2023-03-21T00:43:02;100590.28;;;9.89;68.41
7200;BME280;3641;49.082;8.200;2023-03-21T00:45:28;100594.75;;;9.90;68.57
7200;BME280;3641;49.082;8.200;2023-03-21T00:47:56;100591.31;;;9.96;68.52
7200;BME280;3641;49.082;8.200;2023-03-21T00:50:23;100594.91;;;9.88;68.82
7200;BME280;3641;49.082;8.200;2023-03-21T00:52:51;100591.88;;;9.75;69.06
7200;BME280;3641;49.082;8.200;2023-03-21T00:55:18;100582.19;;;9.48;70.88
7200;BME280;3641;49.082;8.200;2023-03-21T00:57:45;100580.47;;;9.71;69.11
7200;BME280;3641;49.082;8.200;2023-03-21T01:00:13;100576.91;;;9.71;70.02
7200;BME280;3641;49.082;8.200;2023-03-21T01:02:40;100571.31;;;9.48;70.65
7200;BME280;3641;49.082;8.200;2023-03-21T01:05:21;100562.50;;;9.13;72.45
7200;BME280;3641;49.082;8.200;2023-03-21T01:08:09;100564.88;;;9.07;72.67
7200;BME280;3641;49.082;8.200;2023-03-21T01:10:38;100564.03;;;9.15;72.45
7200;BME280;3641;49.082;8.200;2023-03-21T01:13:05;100563.34;;;9.21;72.89
7200;BME280;3641;49.082;8.200;2023-03-21T01:15:31;100560.28;;;9.24;72.63
7200;BME280;3641;49.082;8.200;2023-03-21T01:17:58;100561.66;;;8.96;73.98
7200;BME280;3641;49.082;8.200;2023-03-21T01:20:25;100556.69;;;9.16;73.36
7200;BME280;3641;49.082;8.200;2023-03-21T01:22:51;100558.56;;;9.07;72.85
7200;BME280;3641;49.082;8.200;2023-03-21T01:25:19;100552.44;;;9.30;71.31
7200;BME280;3641;49.082;8.200;2023-03-21T01:27:46;100559.91;;;9.44;69.87
7200;BME280;3641;49.082;8.200;2023-03-21T01:30:12;100555.84;;;9.40;69.96
7200;BME280;3641;49.082;8.200;2023-03-21T01:32:39;100554.31;;;9.37;70.48
7200;BME280;3641;49.082;8.200;2023-03-21T01:35:06;100551.91;;;9.42;69.94
7200;BME280;3641;49.082;8.200;2023-03-21T01:37:33;100559.22;;;9.42;69.48
7200;BME280;3641;49.082;8.200;2023-03-21T01:39:59;100552.41;;;9.46;69.64
7200;BME280;3641;49.082;8.200;2023-03-21T01:42:27;100549.53;;;9.39;69.38
7200;BME280;3641;49.082;8.200;2023-03-21T01:44:55;100552.25;;;9.31;70.34
7200;BME280;3641;49.082;8.200;2023-03-21T01:47:22;100545.31;;;8.79;73.93
7200;BME280;3641;49.082;8.200;2023-03-21T01:49:50;100541.03;;;8.85;75.39
7200;BME280;3641;49.082;8.200;2023-03-21T01:52:19;100535.94;;;9.15;70.77
7200;BME280;3641;49.082;8.200;2023-03-21T01:54:48;100532.34;;;9.14;70.98
7200;BME280;3641;49.082;8.200;2023-03-21T01:57:20;100541.56;;;8.97;73.44
7200;BME280;3641;49.082;8.200;2023-03-21T01:59:49;100533.22;;;8.90;73.76
7200;BME280;3641;49.082;8.200;2023-03-21T02:02:22;100531.34;;;8.90;72.16
7200;BME280;3641;49.082;8.200;2023-03-21T02:04:50;100535.44;;;8.70;73.99
7200;BME280;3641;49.082;8.200;2023-03-21T02:07:24;100533.38;;;8.80;72.79
7200;BME280;3641;49.082;8.200;2023-03-21T02:09:53;100535.09;;;8.81;72.22
7200;BME280;3641;49.082;8.200;2023-03-21T02:12:21;100527.44;;;8.77;72.28
7200;BME280;3641;49.082;8.200;2023-03-21T02:14:50;100528.63;;;8.74;71.66
7200;BME280;3641;49.082;8.200;2023-03-21T02:17:21;100529.66;;;8.73;72.20
7200;BME280;3641;49.082;8.200;2023-03-21T02:20:24;100527.25;;;8.70;70.84
7200;BME280;3641;49.082;8.200;2023-03-21T02:23:13;100526.84;;;8.40;74.97
7200;BME280;3641;49.082;8.200;2023-03-21T02:26:19;100523.50;;;8.54;71.81
7200;BME280;3641;49.082;8.200;2023-03-21T02:28:54;100523.81;;;8.51;73.35
7200;BME280;3641;49.082;8.200;2023-03-21T02:31:29;100522.66;;;8.54;71.59
7200;BME280;3641;49.082;8.200;2023-03-21T02:34:11;100521.94;;;8.52;73.21
7200;BME280;3641;49.082;8.200;2023-03-21T02:36:51;100515.78;;;8.33;73.11
7200;BME280;3641;49.082;8.200;2023-03-21T02:39:24;100519.34;;;8.42;72.03
7200;BME280;3641;49.082;8.200;2023-03-21T02:42:01;100513.22;;;8.40;72.45
7200;BME280;3641;49.082;8.200;2023-03-21T02:44:34;100512.69;;;8.20;72.83
7200;BME280;3641;49.082;8.200;2023-03-21T02:47:07;100504.00;;;8.25;73.76
7200;BME280;3641;49.082;8.200;2023-03-21T02:49:39;100505.56;;;8.27;72.58
7200;BME280;3641;49.082;8.200;2023-03-21T02:52:10;100503.34;;;8.31;72.38
7200;BME280;3641;49.082;8.200;2023-03-21T02:54:40;100507.13;;;8.30;71.70
7200;BME280;3641;49.082;8.200;2023-03-21T02:57:08;100506.44;;;8.36;71.18
7200;BME280;3641;49.082;8.200;2023-03-21T02:59:36;100506.97;;;8.40;71.15
7200;BME280;3641;49.082;8.200;2023-03-21T03:02:04;100501.13;;;8.26;74.12
7200;BME280;3641;49.082;8.200;2023-03-21T03:04:31;100495.75;;;7.84;77.62
7200;BME280;3641;49.082;8.200;2023-03-21T03:07:20;100500.53;;;7.55;79.09
7200;BME280;3641;49.082;8.200;2023-03-21T03:12:29;100503.25;;;7.90;77.50
7200;BME280;3641;49.082;8.200;2023-03-21T03:15:05;100510.25;;;7.32;80.42
7200;BME280;3641;49.082;8.200;2023-03-21T03:17:49;100496.41;;;7.43;80.28
7200;BME280;3641;49.082;8.200;2023-03-21T03:20:24;100498.50;;;7.23;80.32
7200;BME280;3641;49.082;8.200;2023-03-21T03:23:10;100482.44;;;7.38;80.79
7200;BME280;3641;49.082;8.200;2023-03-21T03:25:41;100500.91;;;7.26;81.37
7200;BME280;3641;49.082;8.200;2023-03-21T03:28:12;100487.59;;;7.49;80.10
7200;BME280;3641;49.082;8.200;2023-03-21T03:30:41;100490.16;;;6.98;81.67
7200;BME280;3641;49.082;8.200;2023-03-21T03:33:09;100496.78;;;7.22;80.81
7200;BME280;3641;49.082;8.200;2023-03-21T03:35:36;100497.84;;;7.29;80.24
7200;BME280;3641;49.082;8.200;2023-03-21T03:38:05;100489.53;;;7.04;81.51
7200;BME280;3641;49.082;8.200;2023-03-21T03:40:38;100488.50;;;6.79;83.21
7200;BME280;3641;49.082;8.200;2023-03-21T03:43:09;100482.19;;;6.97;81.99
7200;BME280;3641;49.082;8.200;2023-03-21T03:45:40;100492.22;;;7.57;75.22
7200;BME280;3641;49.082;8.200;2023-03-21T03:48:13;100498.06;;;7.09;81.18
7200;BME280;3641;49.082;8.200;2023-03-21T03:50:44;100491.69;;;6.75;82.50
7200;BME280;3641;49.082;8.200;2023-03-21T03:53:19;100492.25;;;6.78;82.42
7200;BME280;3641;49.082;8.200;2023-03-21T03:55:47;100497.38;;;7.07;79.66
7200;BME280;3641;49.082;8.200;2023-03-21T03:58:17;100493.41;;;6.76;82.02
7200;BME280;3641;49.082;8.200;2023-03-21T04:00:44;100497.97;;;6.57;83.33
7200;BME280;3641;49.082;8.200;2023-03-21T04:03:11;100486.59;;;6.35;84.29
7200;BME280;3641;49.082;8.200;2023-03-21T04:05:37;100488.78;;;6.50;84.04
7200;BME280;3641;49.082;8.200;2023-03-21T04:08:04;100487.19;;;6.83;80.92
7200;BME280;3641;49.082;8.200;2023-03-21T04:10:32;100494.22;;;7.20;77.18
7200;BME280;3641;49.082;8.200;2023-03-21T04:12:59;100497.72;;;6.86;81.69
7200;BME280;3641;49.082;8.200;2023-03-21T04:15:25;100490.44;;;7.13;78.86
7200;BME280;3641;49.082;8.200;2023-03-21T04:17:52;100490.53;;;7.03;80.87
7200;BME280;3641;49.082;8.200;2023-03-21T04:20:19;100490.25;;;7.33;77.49
7200;BME280;3641;49.082;8.200;2023-03-21T04:22:45;100479.75;;;7.12;79.95
7200;BME280;3641;49.082;8.200;2023-03-21T04:25:12;100487.81;;;6.23;84.57
7200;BME280;3641;49.082;8.200;2023-03-21T04:27:40;100487.75;;;6.51;82.64
7200;BME280;3641;49.082;8.200;2023-03-21T04:30:08;100484.78;;;7.06;77.13
7200;BME280;3641;49.082;8.200;2023-03-21T04:32:36;100482.97;;;6.89;80.46
7200;BME280;3641;49.082;8.200;2023-03-21T04:35:04;100490.78;;;6.66;82.66
7200;BME280;3641;49.082;8.200;2023-03-21T04:37:31;100488.91;;;6.66;81.68
7200;BME280;3641;49.082;8.200;2023-03-21T04:39:58;100485.59;;;6.99;78.41
7200;BME280;3641;49.082;8.200;2023-03-21T04:42:25;100488.31;;;6.99;80.40
7200;BME280;3641;49.082;8.200;2023-03-21T04:44:52;100487.50;;;7.06;78.01
7200;BME280;3641;49.082;8.200;2023-03-21T04:47:19;100481.81;;;6.91;81.61
7200;BME280;3641;49.082;8.200;2023-03-21T04:49:46;100483.41;;;7.28;75.74
7200;BME280;3641;49.082;8.200;2023-03-21T04:52:13;100488.38;;;7.33;75.57
7200;BME280;3641;49.082;8.200;2023-03-21T04:54:39;100482.28;;;7.39;74.67
7200;BME280;3641;49.082;8.200;2023-03-21T04:57:06;100476.34;;;7.36;75.10
7200;BME280;3641;49.082;8.200;2023-03-21T04:59:33;100471.78;;;7.44;75.00
7200;BME280;3641;49.082;8.200;2023-03-21T05:02:01;100475.16;;;7.38;74.26
7200;BME280;3641;49.082;8.200;2023-03-21T05:04:28;100472.91;;;7.34;76.23
7200;BME280;3641;49.082;8.200;2023-03-21T05:06:55;100469.44;;;7.15;79.66
7200;BME280;3641;49.082;8.200;2023-03-21T05:09:22;100473.31;;;6.86;81.49
7200;BME280;3641;49.082;8.200;2023-03-21T05:11:48;100472.94;;;7.07;79.90
7200;BME280;3641;49.082;8.200;2023-03-21T05:14:17;100472.19;;;6.97;80.48
7200;BME280;3641;49.082;8.200;2023-03-21T05:16:44;100474.34;;;7.12;80.00
7200;BME280;3641;49.082;8.200;2023-03-21T05:19:19;100471.56;;;7.30;76.58
7200;BME280;3641;49.082;8.200;2023-03-21T05:21:47;100464.44;;;6.84;78.90
7200;BME280;3641;49.082;8.200;2023-03-21T05:24:16;100474.72;;;6.99;78.43
7200;BME280;3641;49.082;8.200;2023-03-21T05:26:44;100468.97;;;6.76;81.01
7200;BME280;3641;49.082;8.200;2023-03-21T05:29:15;100475.03;;;6.69;79.03
7200;BME280;3641;49.082;8.200;2023-03-21T05:31:42;100472.22;;;6.79;80.19
7200;BME280;3641;49.082;8.200;2023-03-21T05:34:08;100465.69;;;6.64;80.89
7200;BME280;3641;49.082;8.200;2023-03-21T05:36:36;100465.38;;;6.93;78.15
7200;BME280;3641;49.082;8.200;2023-03-21T05:39:03;100468.13;;;6.75;79.61
7200;BME280;3641;49.082;8.200;2023-03-21T05:41:30;100471.97;;;6.90;78.46
7200;BME280;3641;49.082;8.200;2023-03-21T05:43:57;100476.44;;;6.38;82.33
7200;BME280;3641;49.082;8.200;2023-03-21T05:46:24;100481.53;;;5.77;84.77
7200;BME280;3641;49.082;8.200;2023-03-21T05:48:51;100478.31;;;5.91;84.49
7200;BME280;3641;49.082;8.200;2023-03-21T05:51:17;100471.41;;;6.07;84.13
7200;BME280;3641;49.082;8.200;2023-03-21T05:53:45;100475.59;;;6.19;83.56
7200;BME280;3641;49.082;8.200;2023-03-21T05:56:12;100480.72;;;6.40;81.62
7200;BME280;3641;49.082;8.200;2023-03-21T05:58:39;100486.06;;;6.50;80.76
7200;BME280;3641;49.082;8.200;2023-03-21T06:01:06;100480.78;;;6.48;82.17
7200;BME280;3641;49.082;8.200;2023-03-21T06:03:32;100476.91;;;6.15;84.26
7200;BME280;3641;49.082;8.200;2023-03-21T06:05:59;100486.25;;;6.03;85.15
7200;BME280;3641;49.082;8.200;2023-03-21T06:08:27;100495.00;;;5.87;85.53
7200;BME280;3641;49.082;8.200;2023-03-21T06:10:55;100488.09;;;6.48;81.18
7200;BME280;3641;49.082;8.200;2023-03-21T06:13:21;100497.75;;;6.50;80.52
7200;BME280;3641;49.082;8.200;2023-03-21T06:15:48;100490.88;;;6.56;80.79
7200;BME280;3641;49.082;8.200;2023-03-21T06:18:14;100490.88;;;6.56;78.89
7200;BME280;3641;49.082;8.200;2023-03-21T06:20:41;100494.34;;;6.48;81.35
7200;BME280;3641;49.082;8.200;2023-03-21T06:23:07;100492.63;;;6.83;76.73
7200;BME280;3641;49.082;8.200;2023-03-21T06:25:34;100474.47;;;6.84;77.16
7200;BME280;3641;49.082;8.200;2023-03-21T06:28:01;100488.31;;;6.54;82.88
7200;BME280;3641;49.082;8.200;2023-03-21T06:30:28;100493.09;;;6.79;78.33
7200;BME280;3641;49.082;8.200;2023-03-21T06:32:55;100494.03;;;6.33;83.76
7200;BME280;3641;49.082;8.200;2023-03-21T06:35:21;100496.03;;;6.31;84.95
7200;BME280;3641;49.082;8.200;2023-03-21T06:37:47;100493.31;;;6.13;85.94
7200;BME280;3641;49.082;8.200;2023-03-21T06:40:15;100494.63;;;6.63;80.77
7200;BME280;3641;49.082;8.200;2023-03-21T06:42:42;100491.56;;;6.58;83.48
7200;BME280;3641;49.082;8.200;2023-03-21T06:45:10;100489.75;;;6.67;83.56
7200;BME280;3641;49.082;8.200;2023-03-21T06:47:36;100494.09;;;6.60;84.32
7200;BME280;3641;49.082;8.200;2023-03-21T06:50:03;100488.69;;;6.60;82.52
7200;BME280;3641;49.082;8.200;2023-03-21T06:52:31;100488.13;;;6.74;83.84
7200;BME280;3641;49.082;8.200;2023-03-21T06:54:57;100476.13;;;6.59;85.93
7200;BME280;3641;49.082;8.200;2023-03-21T06:57:24;100476.03;;;6.68;86.11
7200;BME280;3641;49.082;8.200;2023-03-21T06:59:50;100475.38;;;6.93;83.68
7200;BME280;3641;49.082;8.200;2023-03-21T07:02:18;100477.97;;;6.76;85.91
7200;BME280;3641;49.082;8.200;2023-03-21T07:04:45;100479.00;;;6.75;86.38
7200;BME280;3641;49.082;8.200;2023-03-21T07:07:11;100469.50;;;6.79;86.84
7200;BME280;3641;49.082;8.200;2023-03-21T07:09:38;100470.91;;;7.09;82.91
7200;BME280;3641;49.082;8.200;2023-03-21T07:12:05;100475.03;;;7.14;85.70
7200;BME280;3641;49.082;8.200;2023-03-21T07:14:32;100473.41;;;7.29;84.38
7200;BME280;3641;49.082;8.200;2023-03-21T07:16:59;100462.03;;;7.60;81.94
7200;BME280;3641;49.082;8.200;2023-03-21T07:19:27;100467.97;;;7.63;80.57
7200;BME280;3641;49.082;8.200;2023-03-21T07:21:53;100464.31;;;7.81;79.39
7200;BME280;3641;49.082;8.200;2023-03-21T07:24:20;100462.72;;;7.62;83.21
7200;BME280;3641;49.082;8.200;2023-03-21T07:26:46;100455.84;;;7.84;79.43
7200;BME280;3641;49.082;8.200;2023-03-21T07:29:13;100467.69;;;7.75;82.16
7200;BME280;3641;49.082;8.200;2023-03-21T07:31:41;100464.16;;;7.91;80.89
7200;BME280;3641;49.082;8.200;2023-03-21T07:34:08;100458.09;;;8.13;79.28
7200;BME280;3641;49.082;8.200;2023-03-21T07:36:36;100458.09;;;8.13;80.87
7200;BME280;3641;49.082;8.200;2023-03-21T07:39:03;100460.00;;;8.37;77.36
7200;BME280;3641;49.082;8.200;2023-03-21T07:41:29;100463.31;;;8.49;76.96
7200;BME280;3641;49.082;8.200;2023-03-21T07:43:56;100464.09;;;8.33;79.81
7200;BME280;3641;49.082;8.200;2023-03-21T07:46:22;100464.78;;;8.27;80.29
7200;BME280;3641;49.082;8.200;2023-03-21T07:48:48;100462.72;;;8.21;79.81
7200;BME280;3641;49.082;8.200;2023-03-21T07:51:15;100465.09;;;8.32;79.02
7200;BME280;3641;49.082;8.200;2023-03-21T07:53:43;100460.53;;;8.41;79.21
7200;BME280;3641;49.082;8.200;2023-03-21T07:56:12;100468.38;;;8.36;79.02
7200;BME280;3641;49.082;8.200;2023-03-21T07:58:40;100465.50;;;8.62;77.03
7200;BME280;3641;49.082;8.200;2023-03-21T08:01:06;100466.88;;;8.75;76.13
7200;BME280;3641;49.082;8.200;2023-03-21T08:03:32;100470.63;;;8.73;78.04
7200;BME280;3641;49.082;8.200;2023-03-21T08:05:59;100478.78;;;8.73;77.27
7200;BME280;3641;49.082;8.200;2023-03-21T08:08:26;100470.25;;;8.85;77.42
7200;BME280;3641;49.082;8.200;2023-03-21T08:10:54;100480.28;;;9.01;75.74
7200;BME280;3641;49.082;8.200;2023-03-21T08:13:20;100481.00;;;8.86;77.24
7200;BME280;3641;49.082;8.200;2023-03-21T08:15:47;100477.25;;;8.87;78.26
7200;BME280;3641;49.082;8.200;2023-03-21T08:18:13;100479.09;;;8.87;77.34
7200;BME280;3641;49.082;8.200;2023-03-21T08:20:40;100476.41;;;8.95;77.99
7200;BME280;3641;49.082;8.200;2023-03-21T08:23:06;100478.25;;;8.95;77.24
7200;BME280;3641;49.082;8.200;2023-03-21T08:25:33;100475.50;;;9.19;75.86
7200;BME280;3641;49.082;8.200;2023-03-21T08:28:01;100475.50;;;9.19;75.61
7200;BME280;3641;49.082;8.200;2023-03-21T08:30:28;100476.31;;;9.36;74.99
7200;BME280;3641;49.082;8.200;2023-03-21T08:32:56;100474.94;;;9.40;75.02
7200;BME280;3641;49.082;8.200;2023-03-21T08:35:23;100471.34;;;9.48;74.81
7200;BME280;3641;49.082;8.200;2023-03-21T08:37:49;100467.28;;;9.36;75.83
7200;BME280;3641;49.082;8.200;2023-03-21T08:40:17;100478.38;;;9.34;75.54
7200;BME280;3641;49.082;8.200;2023-03-21T08:42:45;100480.91;;;9.36;75.65
7200;BME280;3641;49.082;8.200;2023-03-21T08:45:14;100484.66;;;9.43;75.13
7200;BME280;3641;49.082;8.200;2023-03-21T08:47:40;100482.44;;;9.47;75.14
7200;BME280;3641;49.082;8.200;2023-03-21T08:50:11;100474.84;;;9.65;74.62
7200;BME280;3641;49.082;8.200;2023-03-21T08:52:38;100477.03;;;9.70;74.41
7200;BME280;3641;49.082;8.200;2023-03-21T08:55:05;100478.78;;;9.62;74.65
7200;BME280;3641;49.082;8.200;2023-03-21T08:57:33;100479.13;;;9.68;74.70
7200;BME280;3641;49.082;8.200;2023-03-21T08:59:59;100473.97;;;9.73;75.03
7200;BME280;3641;49.082;8.200;2023-03-21T09:02:27;100477.84;;;9.87;74.50
7200;BME280;3641;49.082;8.200;2023-03-21T09:04:54;100473.88;;;9.97;73.54
7200;BME280;3641;49.082;8.200;2023-03-21T09:07:23;100468.91;;;10.01;73.63
7200;BME280;3641;49.082;8.200;2023-03-21T09:09:50;100468.72;;;10.03;73.25
7200;BME280;3641;49.082;8.200;2023-03-21T09:12:17;100470.22;;;10.13;72.90
7200;BME280;3641;49.082;8.200;2023-03-21T09:14:44;100465.09;;;10.10;72.69
7200;BME280;3641;49.082;8.200;2023-03-21T09:17:10;100467.84;;;10.10;72.57
7200;BME280;3641;49.082;8.200;2023-03-21T09:19:38;100461.63;;;10.25;72.58
7200;BME280;3641;49.082;8.200;2023-03-21T09:22:05;100463.81;;;10.29;72.44
7200;BME280;3641;49.082;8.200;2023-03-21T09:24:35;100465.28;;;10.40;71.52
7200;BME280;3641;49.082;8.200;2023-03-21T09:27:02;100464.81;;;10.28;71.62
7200;BME280;3641;49.082;8.200;2023-03-21T09:29:28;100466.59;;;10.21;72.17
7200;BME280;3641;49.082;8.200;2023-03-21T09:31:56;100471.66;;;10.32;72.24
7200;BME280;3641;49.082;8.200;2023-03-21T09:34:23;100464.69;;;10.22;71.92
7200;BME280;3641;49.082;8.200;2023-03-21T09:36:52;100466.19;;;10.24;71.58
7200;BME280;3641;49.082;8.200;2023-03-21T09:39:20;100464.25;;;10.41;72.19
7200;BME280;3641;49.082;8.200;2023-03-21T09:42:02;100468.69;;;10.42;72.05
7200;BME280;3641;49.082;8.200;2023-03-21T09:44:41;100467.22;;;10.54;71.96
7200;BME280;3641;49.082;8.200;2023-03-21T09:47:16;100474.19;;;10.57;71.54
7200;BME280;3641;49.082;8.200;2023-03-21T09:49:47;100472.75;;;10.69;71.48
7200;BME280;3641;49.082;8.200;2023-03-21T09:54:53;100467.19;;;10.63;69.71
7200;BME280;3641;49.082;8.200;2023-03-21T09:57:28;100467.72;;;10.58;69.51
7200;BME280;3641;49.082;8.200;2023-03-21T09:59:58;100464.75;;;10.68;69.53
7200;BME280;3641;49.082;8.200;2023-03-21T10:02:40;100462.78;;;10.77;69.62
7200;BME280;3641;49.082;8.200;2023-03-21T10:05:16;100463.81;;;10.76;69.47
7200;BME280;3641;49.082;8.200;2023-03-21T10:07:45;100461.75;;;10.78;69.05
7200;BME280;3641;49.082;8.200;2023-03-21T10:10:21;100467.31;;;10.84;68.96
7200;BME280;3641;49.082;8.200;2023-03-21T10:12:52;100454.66;;;10.68;68.52
7200;BME280;3641;49.082;8.200;2023-03-21T10:15:21;100456.84;;;10.73;69.47
7200;BME280;3641;49.082;8.200;2023-03-21T10:17:52;100449.31;;;10.75;69.01
7200;BME280;3641;49.082;8.200;2023-03-21T10:20:23;100452.72;;;10.77;69.10
7200;BME280;3641;49.082;8.200;2023-03-21T10:22:52;100448.38;;;10.83;68.51
7200;BME280;3641;49.082;8.200;2023-03-21T10:25:24;100446.91;;;10.95;68.97
7200;BME280;3641;49.082;8.200;2023-03-21T10:27:52;100437.97;;;11.01;69.52
7200;BME280;3641;49.082;8.200;2023-03-21T10:30:25;100438.25;;;11.06;68.91
7200;BME280;3641;49.082;8.200;2023-03-21T10:32:55;100442.34;;;11.11;68.29
7200;BME280;3641;49.082;8.200;2023-03-21T10:35:23;100433.97;;;11.12;67.40
7200;BME280;3641;49.082;8.200;2023-03-21T10:37:49;100431.09;;;11.05;67.04
7200;BME280;3641;49.082;8.200;2023-03-21T10:40:16;100427.91;;;11.17;68.88
7200;BME280;3641;49.082;8.200;2023-03-21T10:42:44;100423.78;;;11.21;66.64
7200;BME280;3641;49.082;8.200;2023-03-21T10:45:15;100414.63;;;11.29;67.19
7200;BME280;3641;49.082;8.200;2023-03-21T10:47:46;100418.66;;;11.33;66.32
7200;BME280;3641;49.082;8.200;2023-03-21T10:50:15;100420.56;;;11.47;66.60
7200;BME280;3641;49.082;8.200;2023-03-21T10:52:46;100419.69;;;11.61;67.89
7200;BME280;3641;49.082;8.200;2023-03-21T10:55:20;100416.13;;;11.76;66.47
7200;BME280;3641;49.082;8.200;2023-03-21T10:57:54;100414.38;;;11.90;67.17
7200;BME280;3641;49.082;8.200;2023-03-21T11:00:26;100406.88;;;11.92;65.23
7200;BME280;3641;49.082;8.200;2023-03-21T11:02:53;100405.81;;;11.93;65.28
7200;BME280;3641;49.082;8.200;2023-03-21T11:05:23;100403.81;;;12.02;66.14
7200;BME280;3641;49.082;8.200;2023-03-21T11:07:58;100409.19;;;11.95;64.36
7200;BME280;3641;49.082;8.200;2023-03-21T11:10:28;100401.28;;;12.00;67.22
7200;BME280;3641;49.082;8.200;2023-03-21T11:13:01;100401.91;;;12.02;68.40
7200;BME280;3641;49.082;8.200;2023-03-21T11:15:30;100399.75;;;11.97;66.88
7200;BME280;3641;49.082;8.200;2023-03-21T11:17:57;100394.75;;;12.01;65.88
7200;BME280;3641;49.082;8.200;2023-03-21T11:20:25;100405.66;;;12.16;67.71
7200;BME280;3641;49.082;8.200;2023-03-21T11:22:54;100400.50;;;12.28;67.14
7200;BME280;3641;49.082;8.200;2023-03-21T11:25:25;100395.88;;;12.50;65.73
7200;BME280;3641;49.082;8.200;2023-03-21T11:27:53;100390.84;;;12.53;67.01
7200;BME280;3641;49.082;8.200;2023-03-21T11:30:24;100394.69;;;12.87;64.51
7200;BME280;3641;49.082;8.200;2023-03-21T11:32:53;100389.16;;;12.81;61.48
7200;BME280;3641;49.082;8.200;2023-03-21T11:35:22;100389.16;;;12.81;64.50
7200;BME280;3641;49.082;8.200;2023-03-21T11:37:52;100380.38;;;12.92;63.85
7200;BME280;3641;49.082;8.200;2023-03-21T11:40:20;100380.66;;;12.97;60.70
7200;BME280;3641;49.082;8.200;2023-03-21T11:42:50;100378.59;;;13.06;62.28
7200;BME280;3641;49.082;8.200;2023-03-21T11:45:19;100371.81;;;13.02;62.07
7200;BME280;3641;49.082;8.200;2023-03-21T11:47:48;100366.19;;;13.10;62.05
7200;BME280;3641;49.082;8.200;2023-03-21T11:50:18;100371.09;;;13.21;59.80
7200;BME280;3641;49.082;8.200;2023-03-21T11:52:54;100362.22;;;13.19;58.21
7200;BME280;3641;49.082;8.200;2023-03-21T11:55:35;100366.03;;;13.18;59.61
7200;BME280;3641;49.082;8.200;2023-03-21T11:58:17;100358.44;;;13.20;61.89
7200;BME280;3641;49.082;8.200;2023-03-21T12:00:50;100350.84;;;13.22;64.06
7200;BME280;3641;49.082;8.200;2023-03-21T12:03:41;100344.56;;;13.29;60.74
7200;BME280;3641;49.082;8.200;2023-03-21T12:06:16;100343.16;;;13.39;58.79
7200;BME280;3641;49.082;8.200;2023-03-21T12:08:52;100335.66;;;13.55;58.40
7200;BME280;3641;49.082;8.200;2023-03-21T12:11:28;100329.47;;;13.46;61.13
7200;BME280;3641;49.082;8.200;2023-03-21T12:14:06;100326.72;;;13.39;61.90
7200;BME280;3641;49.082;8.200;2023-03-21T12:16:48;100324.47;;;13.56;60.49
7200;BME280;3641;49.082;8.200;2023-03-21T12:19:42;100315.38;;;13.56;57.51
7200;BME280;3641;49.082;8.200;2023-03-21T12:22:16;100320.28;;;13.67;56.82
7200;BME280;3641;49.082;8.200;2023-03-21T12:24:50;100313.91;;;13.53;58.41
7200;BME280;3641;49.082;8.200;2023-03-21T12:27:26;100304.63;;;13.54;55.95
7200;BME280;3641;49.082;8.200;2023-03-21T12:32:58;100299.13;;;13.48;55.61
7200;BME280;3641;49.082;8.200;2023-03-21T12:35:40;100290.03;;;13.40;55.65
7200;BME280;3641;49.082;8.200;2023-03-21T12:38:14;100298.06;;;13.42;59.37
7200;BME280;3641;49.082;8.200;2023-03-21T12:40:49;100292.78;;;13.47;60.95
7200;BME280;3641;49.082;8.200;2023-03-21T12:43:27;100285.59;;;13.46;60.33
7200;BME280;3641;49.082;8.200;2023-03-21T12:45:59;100287.53;;;13.52;56.68
7200;BME280;3641;49.082;8.200;2023-03-21T12:48:32;100283.16;;;13.65;55.66
7200;BME280;3641;49.082;8.200;2023-03-21T12:51:05;100274.06;;;13.64;59.22
7200;BME280;3641;49.082;8.200;2023-03-21T12:53:44;100276.44;;;13.80;55.89
7200;BME280;3641;49.082;8.200;2023-03-21T12:56:17;100272.44;;;13.90;54.93
7200;BME280;3641;49.082;8.200;2023-03-21T12:58:49;100269.03;;;13.94;56.46
7200;BME280;3641;49.082;8.200;2023-03-21T13:01:18;100268.22;;;14.07;53.43
7200;BME280;3641;49.082;8.200;2023-03-21T13:03:49;100274.13;;;14.11;54.72
7200;BME280;3641;49.082;8.200;2023-03-21T13:06:20;100277.72;;;14.11;55.07
7200;BME280;3641;49.082;8.200;2023-03-21T13:08:55;100266.94;;;14.16;55.55
7200;BME280;3641;49.082;8.200;2023-03-21T13:11:26;100270.31;;;14.12;58.53
7200;BME280;3641;49.082;8.200;2023-03-21T13:13:58;100267.38;;;14.07;55.70
7200;BME280;3641;49.082;8.200;2023-03-21T13:16:30;100261.47;;;14.10;54.13
7200;BME280;3641;49.082;8.200;2023-03-21T13:19:04;100267.56;;;14.05;52.52
7200;BME280;3641;49.082;8.200;2023-03-21T13:21:43;100258.72;;;14.03;56.72
7200;BME280;3641;49.082;8.200;2023-03-21T13:24:24;100265.03;;;14.04;53.00
7200;BME280;3641;49.082;8.200;2023-03-21T13:26:57;100264.00;;;14.05;53.04
7200;BME280;3641;49.082;8.200;2023-03-21T13:29:28;100258.91;;;14.08;56.49
7200;BME280;3641;49.082;8.200;2023-03-21T13:32:06;100261.88;;;14.00;55.95
7200;BME280;3641;49.082;8.200;2023-03-21T13:34:34;100248.78;;;14.02;55.73
7200;BME280;3641;49.082;8.200;2023-03-21T13:37:02;100252.81;;;14.06;55.28
7200;BME280;3641;49.082;8.200;2023-03-21T13:39:28;100247.72;;;14.10;55.32